Etusivu
METAR-TAF:

METAR-TAF

Lentoasemat :

Kemi-Tornion lentoasema

Kemi, Suomi

Leveyspiiri: 65-47N, Pituuspiiri: 024-35E, korkeus merenpinnasta: 15 m

Tämänhetkinen sää

Tämä raportti tehtiin 12 minuuttia sitten, kello 22.50 UTC
Tuuli 2 kn etelästä/kaakosta
Lämpötila 5°C
Kosteus 87%
Ilmanpaine 1026 hPa
Näkyvyys 10 km tai enemmän
ei pilviä alle 1500 m:ssä eikä cumulonimbus-pilviä

METAR: EFKE 242250Z AUTO 16002KT CAVOK 05/03 Q1026

Aika: 02:02 (23:02 UTC)

Sääennuste

Tämä raportti tehtiin 8 tuntia ja 37 minuuttia sitten, kello 14.25 UTC
Ennuste voimassa 24. päivästä klo 15 UTC - 24. päivään klo 24 UTC
Tuuli 6 kn etelästä/lounaasta
Näkyvyys 10 km tai enemmän
ei pilviä alle 1500 m:ssä eikä cumulonimbus-pilviä

TAF: EFKE 241425Z 2415/2424 20006KT CAVOK

Säähavainnot ja -ennusteet yli 4000 lentoasemalta (METAR- ja TAF-raportit).

Käytössä olevat sääasemat on merkitty karttaan keltaisilla ja punaisilla pisteillä.

Aseta hiiri pisteen päälle nähdäksesi sääaseman nimen.

Klikkaa sitten nähdäksesi säähavainnot ja -ennusteet.

Kartan vaihtaminen: klikkaa mustalla rastilla varustettuja vihreitä pisteitä, niin voit zoomata sisään; viivalla varustettua vihreää pistettä, niin voit zoomata ulos tai vihreitä nuolia, niin pääset viereisille kartoille.


METAR-TAF: